Time;durP1;ratioP1;P1;durP2;ratioP2;P2;SDS_P1;SDS_P2;PMS_P1;PMS_P2;Temp;Humidity;BMP_temperature;BMP_pressure;BME280_temperature;BME280_humidity;BME280_pressure;Samples;Min_cycle;Max_cycle;Signal;HPM_P1;HPM_P2
2021/12/21 00:00:38;;;;;;;2.30;1.48;;;-1.90;49.90;;;;;;5114385;27;34306;-76
2021/12/21 00:03:05;;;;;;;1.58;1.45;;;-1.90;49.70;;;;;;5113997;27;34161;-76
2021/12/21 00:05:31;;;;;;;1.98;1.15;;;-1.90;50.00;;;;;;5096464;27;34195;-76
2021/12/21 00:08:00;;;;;;;2.35;1.38;;;-1.90;50.00;;;;;;5113494;27;34222;-76
2021/12/21 00:10:29;;;;;;;5.10;1.67;;;-2.00;50.30;;;;;;5114472;27;34196;-75
2021/12/21 00:13:04;;;;;;;2.08;1.10;;;-1.90;50.30;;;;;;5096890;27;35686;-76
2021/12/21 00:15:49;;;;;;;2.30;1.42;;;-1.90;50.40;;;;;;5114778;27;34375;-76
2021/12/21 00:21:05;;;;;;;3.33;1.40;;;-2.00;50.30;;;;;;5131934;27;34347;-75
2021/12/21 00:23:36;;;;;;;3.40;1.50;;;-2.00;49.80;;;;;;5131274;27;34947;-76
2021/12/21 00:26:13;;;;;;;5.38;1.23;;;-2.00;49.40;;;;;;5113486;27;34227;-76
2021/12/21 00:28:53;;;;;;;1.48;1.30;;;-2.10;49.50;;;;;;5112774;27;33724;-76
2021/12/21 00:31:20;;;;;;;3.90;1.40;;;-2.10;49.70;;;;;;5131277;27;34239;-76
2021/12/21 00:33:47;;;;;;;4.15;1.52;;;-2.10;49.90;;;;;;5094980;27;35800;-75
2021/12/21 00:36:17;;;;;;;2.50;1.83;;;-2.10;49.80;;;;;;5112595;27;34202;-75
2021/12/21 00:38:44;;;;;;;2.35;1.40;;;-2.20;49.60;;;;;;5112437;27;34269;-76
2021/12/21 00:41:11;;;;;;;1.55;1.38;;;-2.20;49.60;;;;;;5112012;27;34134;-75
2021/12/21 00:43:37;;;;;;;2.85;1.50;;;-2.20;49.50;;;;;;5112048;27;34977;-75
2021/12/21 00:46:04;;;;;;;1.83;1.42;;;-2.20;49.40;;;;;;5111201;27;34134;-75
2021/12/21 00:48:32;;;;;;;1.95;1.48;;;-2.30;49.30;;;;;;5095171;27;34205;-75
2021/12/21 00:50:59;;;;;;;2.25;1.05;;;-2.30;49.30;;;;;;5128782;27;34440;-75
2021/12/21 00:53:26;;;;;;;0.93;0.93;;;-2.40;49.30;;;;;;5109959;27;36088;-76
2021/12/21 00:55:54;;;;;;;5.25;1.38;;;-2.40;49.80;;;;;;5092308;27;34176;-76
2021/12/21 00:58:21;;;;;;;2.03;1.30;;;-2.40;50.00;;;;;;5110102;27;34200;-76
2021/12/21 01:00:48;;;;;;;1.73;1.27;;;-2.40;50.00;;;;;;5128003;27;34268;-76
2021/12/21 01:03:16;;;;;;;1.90;1.08;;;-2.50;49.90;;;;;;5091100;27;35718;-76
2021/12/21 01:05:51;;;;;;;1.23;1.13;;;-2.40;50.00;;;;;;5109649;27;34259;-76
2021/12/21 01:08:22;;;;;;;3.50;1.30;;;-2.40;50.20;;;;;;5128321;27;34068;-76
2021/12/21 01:11:01;;;;;;;4.85;1.80;;;-2.40;50.30;;;;;;5127692;27;34129;-76
2021/12/21 01:13:38;;;;;;;0.98;0.93;;;-2.50;50.20;;;;;;5108695;27;35785;-76
2021/12/21 01:21:35;;;;;;;1.45;1.13;;;-2.40;50.50;;;;;;5111562;27;34218;-76
2021/12/21 01:29:34;;;;;;;2.47;1.63;;;-2.50;50.00;;;;;;5126811;27;34174;-77
2021/12/21 01:32:10;;;;;;;1.55;0.93;;;-2.50;50.30;;;;;;5108658;27;34472;-76
2021/12/21 01:37:26;;;;;;;3.53;0.98;;;-2.50;50.00;;;;;;5112438;27;34194;-76
2021/12/21 01:40:00;;;;;;;4.03;1.13;;;-2.50;49.80;;;;;;5127401;27;34439;-76
2021/12/21 01:42:50;;;;;;;7.30;1.10;;;-2.50;50.00;;;;;;5108664;27;34384;-76
2021/12/21 01:50:41;;;;;;;1.15;1.05;;;-2.50;50.10;;;;;;5126897;27;34352;-76
2021/12/21 01:53:07;;;;;;;1.00;0.85;;;-2.50;49.80;;;;;;5109215;27;34245;-76
2021/12/21 01:55:34;;;;;;;1.80;0.90;;;-2.60;49.70;;;;;;5108588;27;35514;-76
2021/12/21 01:58:00;;;;;;;2.42;1.00;;;-2.60;49.80;;;;;;5109111;27;34301;-76
2021/12/21 02:00:27;;;;;;;1.33;1.10;;;-2.60;49.90;;;;;;5109468;27;34294;-76
2021/12/21 02:02:53;;;;;;;0.80;0.80;;;-2.60;49.80;;;;;;5110393;27;34292;-76
2021/12/21 02:05:19;;;;;;;1.48;1.00;;;-2.60;50.00;;;;;;5075133;27;35564;-76
2021/12/21 02:07:46;;;;;;;2.63;0.80;;;-2.60;49.60;;;;;;5108636;27;34354;-76
2021/12/21 02:10:12;;;;;;;1.60;1.42;;;-2.70;49.30;;;;;;5127342;27;34522;-76
2021/12/21 02:12:38;;;;;;;2.03;1.38;;;-2.70;49.20;;;;;;5108933;27;34081;-75
2021/12/21 02:15:04;;;;;;;1.15;1.02;;;-2.80;48.90;;;;;;5108889;27;36088;-76
2021/12/21 02:20:23;;;;;;;3.35;1.60;;;-2.90;49.30;;;;;;5111749;27;34407;-76
2021/12/21 02:22:57;;;;;;;1.85;0.93;;;-2.90;49.40;;;;;;5108612;27;34044;-76
2021/12/21 02:25:54;;;;;;;1.65;1.13;;;-2.90;49.40;;;;;;5108829;27;35608;-76
2021/12/21 02:30:56;;;;;;;1.60;1.08;;;-3.00;50.00;;;;;;5111788;27;34111;-76
2021/12/21 02:33:25;;;;;;;1.08;1.08;;;-3.00;49.70;;;;;;5127722;27;34076;-76
2021/12/21 02:35:52;;;;;;;3.85;1.10;;;-3.00;49.20;;;;;;5091700;27;35654;-76
2021/12/21 02:38:18;;;;;;;1.70;1.08;;;-3.10;48.80;;;;;;5108236;27;34427;-76
2021/12/21 02:40:45;;;;;;;3.88;1.02;;;-3.10;48.80;;;;;;5126632;27;34192;-76
2021/12/21 02:43:13;;;;;;;3.70;1.45;;;-3.10;48.90;;;;;;5108424;27;34336;-76
2021/12/21 02:45:41;;;;;;;1.00;0.90;;;-3.20;49.40;;;;;;5090620;27;36574;-76
2021/12/21 02:48:07;;;;;;;2.45;1.20;;;-3.20;49.50;;;;;;5127108;27;34132;-76
2021/12/21 02:50:36;;;;;;;1.45;1.00;;;-3.20;49.40;;;;;;5126992;27;34300;-76
2021/12/21 02:53:03;;;;;;;1.13;0.80;;;-3.30;49.70;;;;;;5091974;27;34216;-76
2021/12/21 02:55:29;;;;;;;0.93;0.80;;;-3.30;49.70;;;;;;5090932;27;36707;-76
2021/12/21 02:57:57;;;;;;;2.97;1.02;;;-3.30;49.70;;;;;;5107958;27;34191;-76
2021/12/21 03:00:27;;;;;;;2.33;1.23;;;-3.30;49.40;;;;;;5092351;27;34201;-76
2021/12/21 03:02:54;;;;;;;2.85;1.15;;;-3.30;49.50;;;;;;5108584;27;34208;-76
2021/12/21 03:05:22;;;;;;;1.98;1.20;;;-3.30;49.40;;;;;;5126358;27;34704;-76
2021/12/21 03:08:07;;;;;;;2.65;1.25;;;-3.40;49.50;;;;;;5126359;27;34186;-76
2021/12/21 03:10:33;;;;;;;1.25;1.08;;;-3.40;49.50;;;;;;5108708;27;34508;-76
2021/12/21 03:15:30;;;;;;;1.25;1.02;;;-3.40;49.40;;;;;;5125838;27;34474;-76
2021/12/21 03:17:58;;;;;;;0.95;0.90;;;-3.40;49.20;;;;;;5075577;27;34144;-76
2021/12/21 03:20:25;;;;;;;2.78;1.08;;;-3.40;49.20;;;;;;5111419;27;34079;-76
2021/12/21 03:22:51;;;;;;;0.90;0.73;;;-3.40;49.10;;;;;;5111044;27;34272;-76
2021/12/21 03:25:18;;;;;;;1.27;1.10;;;-3.50;49.70;;;;;;5110707;27;35820;-77
2021/12/21 03:27:44;;;;;;;1.70;1.20;;;-3.50;49.50;;;;;;5111140;27;34198;-76
2021/12/21 03:30:13;;;;;;;0.85;0.82;;;-3.50;49.50;;;;;;5094133;27;34049;-76
2021/12/21 03:32:39;;;;;;;2.13;0.75;;;-3.50;49.70;;;;;;5094357;27;34444;-76
2021/12/21 03:35:06;;;;;;;1.38;1.10;;;-3.50;49.70;;;;;;5110700;27;35525;-76
2021/12/21 03:37:33;;;;;;;1.48;0.88;;;-3.50;49.90;;;;;;5095207;27;34019;-76
2021/12/21 03:40:01;;;;;;;1.10;0.85;;;-3.50;49.40;;;;;;5111584;27;33795;-76
2021/12/21 03:42:28;;;;;;;5.28;1.00;;;-3.60;49.30;;;;;;5112285;27;34381;-77
2021/12/21 03:44:54;;;;;;;3.22;1.15;;;-3.50;49.60;;;;;;5111652;27;36888;-76
2021/12/21 03:47:22;;;;;;;1.85;1.00;;;-3.60;49.50;;;;;;5111881;27;34138;-76
2021/12/21 03:49:54;;;;;;;0.70;0.70;;;-3.60;49.30;;;;;;5112481;27;34177;-76
2021/12/21 03:52:22;;;;;;;1.02;0.88;;;-3.60;49.30;;;;;;5111708;27;34363;-76
2021/12/21 03:54:51;;;;;;;2.55;1.05;;;-3.60;49.00;;;;;;5094886;27;36647;-76
2021/12/21 03:57:18;;;;;;;4.13;1.17;;;-3.70;49.10;;;;;;5130448;27;34213;-76
2021/12/21 03:59:45;;;;;;;3.15;0.85;;;-3.70;48.90;;;;;;5112898;27;34246;-76
2021/12/21 04:02:13;;;;;;;2.97;0.95;;;-3.70;48.60;;;;;;5112475;27;34388;-76
2021/12/21 04:04:40;;;;;;;1.50;0.90;;;-3.80;48.60;;;;;;5112012;27;36077;-76
2021/12/21 04:07:06;;;;;;;2.72;1.13;;;-3.70;49.10;;;;;;5095563;27;34096;-76
2021/12/21 04:09:33;;;;;;;2.50;0.93;;;-3.80;48.80;;;;;;5112511;27;34309;-76
2021/12/21 04:12:00;;;;;;;1.95;1.27;;;-3.80;49.10;;;;;;5095009;27;34524;-75
2021/12/21 04:14:28;;;;;;;2.67;1.13;;;-3.80;49.20;;;;;;5111927;27;36645;-75
2021/12/21 04:16:54;;;;;;;3.47;1.33;;;-3.80;49.20;;;;;;5112252;27;34368;-76
2021/12/21 04:19:21;;;;;;;1.77;1.67;;;-3.90;49.60;;;;;;5111066;27;34327;-76
2021/12/21 04:21:47;;;;;;;2.97;1.10;;;-3.90;49.70;;;;;;5133459;27;34305;-76
2021/12/21 04:24:14;;;;;;;5.78;0.93;;;-3.90;49.50;;;;;;5131733;27;35837;-76
2021/12/21 04:26:40;;;;;;;3.10;1.20;;;-3.90;49.50;;;;;;5115420;27;34289;-76
2021/12/21 04:29:06;;;;;;;1.30;1.10;;;-3.90;49.70;;;;;;5131463;27;34159;-76
2021/12/21 04:31:32;;;;;;;1.25;0.90;;;-3.90;49.70;;;;;;5116139;27;33755;-76
2021/12/21 04:33:59;;;;;;;3.92;1.02;;;-3.90;49.60;;;;;;5114896;27;36856;-76
2021/12/21 04:36:26;;;;;;;3.20;1.05;;;-3.90;49.40;;;;;;5116140;27;34141;-76
2021/12/21 04:38:54;;;;;;;1.15;0.93;;;-3.90;49.10;;;;;;5151628;27;34183;-76
2021/12/21 04:41:27;;;;;;;2.10;1.10;;;-3.90;49.00;;;;;;5116210;27;34086;-75
2021/12/21 04:43:57;;;;;;;1.05;1.00;;;-3.90;49.10;;;;;;5151247;27;34192;-76
2021/12/21 04:46:24;;;;;;;1.50;1.13;;;-4.00;48.80;;;;;;5133032;27;34193;-76
2021/12/21 04:48:51;;;;;;;1.05;0.95;;;-4.00;49.20;;;;;;5132996;27;34248;-75
2021/12/21 04:51:18;;;;;;;1.77;1.15;;;-4.00;49.20;;;;;;5131902;27;34126;-76
2021/12/21 04:53:44;;;;;;;1.70;1.17;;;-4.00;49.20;;;;;;5131249;27;36595;-75
2021/12/21 04:56:10;;;;;;;2.60;1.30;;;-4.10;49.20;;;;;;5131577;27;34387;-76
2021/12/21 04:58:36;;;;;;;4.95;1.08;;;-4.10;49.80;;;;;;5151006;27;34287;-76
2021/12/21 05:01:04;;;;;;;5.13;1.17;;;-4.10;50.20;;;;;;5132130;27;34762;-75
2021/12/21 05:03:30;;;;;;;1.67;1.10;;;-4.10;49.60;;;;;;5130957;27;35873;-76
2021/12/21 05:05:56;;;;;;;1.23;1.13;;;-4.10;49.40;;;;;;5114475;27;34075;-76
2021/12/21 05:08:26;;;;;;;1.50;1.00;;;-4.10;49.40;;;;;;5150410;27;34204;-76
2021/12/21 05:10:59;;;;;;;5.05;1.35;;;-4.10;49.20;;;;;;5115156;27;34133;-76
2021/12/21 05:13:27;;;;;;;1.35;0.88;;;-4.10;49.40;;;;;;5097654;27;36010;-76
2021/12/21 05:15:53;;;;;;;2.85;1.08;;;-4.10;49.30;;;;;;5131061;27;34193;-75
2021/12/21 05:18:21;;;;;;;3.90;1.30;;;-4.10;49.50;;;;;;5141713;27;34203;-75
2021/12/21 05:20:47;;;;;;;1.30;1.00;;;-4.10;49.70;;;;;;5094946;27;34375;-75
2021/12/21 05:23:13;;;;;;;5.38;1.27;;;-4.10;49.70;;;;;;5128324;27;35234;-76
2021/12/21 05:25:40;;;;;;;0.93;0.85;;;-4.10;49.60;;;;;;5110409;27;34260;-76
2021/12/21 05:28:08;;;;;;;2.67;1.23;;;-4.20;50.20;;;;;;5110268;27;34180;-76
2021/12/21 05:30:35;;;;;;;3.10;1.20;;;-4.20;49.50;;;;;;5128575;27;33624;-75
2021/12/21 05:33:03;;;;;;;1.70;1.15;;;-4.10;49.60;;;;;;5109881;27;35588;-75
2021/12/21 05:35:29;;;;;;;3.03;1.35;;;-4.20;49.30;;;;;;5109829;27;34328;-75
2021/12/21 05:38:00;;;;;;;1.35;0.95;;;-4.20;49.20;;;;;;5128654;27;34431;-75
2021/12/21 05:40:34;;;;;;;2.00;1.10;;;-4.20;49.20;;;;;;5110526;27;34419;-76
2021/12/21 05:43:03;;;;;;;2.03;1.30;;;-4.20;49.20;;;;;;5109539;27;36522;-75
2021/12/21 05:45:29;;;;;;;2.17;1.05;;;-4.20;49.30;;;;;;5126856;27;34190;-76
2021/12/21 05:47:55;;;;;;;0.95;0.88;;;-4.20;49.70;;;;;;5110747;27;34261;-76
2021/12/21 05:50:21;;;;;;;1.38;0.95;;;-4.30;49.80;;;;;;5110221;27;34298;-76
2021/12/21 05:52:48;;;;;;;3.80;1.33;;;-4.30;49.70;;;;;;5128556;27;35000;-76
2021/12/21 05:55:16;;;;;;;3.20;0.90;;;-4.20;49.70;;;;;;5092835;27;34249;-76
2021/12/21 05:57:42;;;;;;;0.90;0.90;;;-4.20;49.70;;;;;;5093953;27;34367;-76
2021/12/21 06:00:13;;;;;;;1.30;0.85;;;-4.20;49.60;;;;;;5109511;27;34210;-75
2021/12/21 06:02:40;;;;;;;1.17;1.08;;;-4.20;49.70;;;;;;5126861;27;34229;-76
2021/12/21 06:05:07;;;;;;;1.43;1.13;;;-4.20;50.00;;;;;;5126593;27;34164;-76
2021/12/21 06:07:34;;;;;;;0.83;0.83;;;-4.20;50.30;;;;;;5108724;27;34399;-76
2021/12/21 06:10:09;;;;;;;2.85;0.90;;;-4.20;50.40;;;;;;5110000;27;34311;-76
2021/12/21 06:12:58;;;;;;;2.17;1.00;;;-4.20;49.90;;;;;;5128448;27;34329;-76
2021/12/21 06:26:17;;;;;;;1.65;1.13;;;-4.20;49.80;;;;;;5127082;27;34177;-76
2021/12/21 06:28:45;;;;;;;3.22;1.10;;;-4.20;49.30;;;;;;5092350;27;34370;-76
2021/12/21 06:31:12;;;;;;;2.97;1.55;;;-4.20;49.10;;;;;;5092481;27;34363;-76
2021/12/21 06:33:38;;;;;;;2.27;1.47;;;-4.20;49.00;;;;;;5108842;27;35000;-76
2021/12/21 06:36:05;;;;;;;1.30;0.90;;;-4.20;48.90;;;;;;5092050;27;34316;-76
2021/12/21 06:38:31;;;;;;;1.13;1.00;;;-4.30;48.70;;;;;;5127473;27;34153;-76
2021/12/21 06:40:58;;;;;;;0.90;0.90;;;-4.30;48.80;;;;;;5127523;27;34342;-76
2021/12/21 06:43:24;;;;;;;1.80;1.08;;;-4.30;49.10;;;;;;5091140;27;35535;-76
2021/12/21 06:46:00;;;;;;;1.33;1.17;;;-4.40;48.90;;;;;;5108458;27;34181;-76
2021/12/21 06:51:19;;;;;;;2.03;1.17;;;-4.40;49.20;;;;;;5126523;27;34168;-76
2021/12/21 06:53:51;;;;;;;1.17;1.08;;;-4.40;49.30;;;;;;5125392;27;35100;-75
2021/12/21 06:56:19;;;;;;;3.10;1.83;;;-4.50;49.30;;;;;;5091465;27;34301;-76
2021/12/21 06:58:45;;;;;;;2.53;0.83;;;-4.50;49.10;;;;;;5092326;27;34119;-75
2021/12/21 07:01:13;;;;;;;2.25;0.85;;;-4.50;49.10;;;;;;5108024;27;34321;-76
2021/12/21 07:03:41;;;;;;;1.53;1.23;;;-4.50;49.10;;;;;;5107639;27;35531;-76
2021/12/21 07:06:09;;;;;;;1.60;1.40;;;-4.50;49.10;;;;;;5108938;27;34498;-76
2021/12/21 07:08:46;;;;;;;0.83;0.83;;;-4.50;49.10;;;;;;5107819;27;34326;-76
2021/12/21 07:11:23;;;;;;;1.43;1.23;;;-4.50;48.90;;;;;;5108426;27;34514;-76
2021/12/21 07:19:14;;;;;;;2.40;1.20;;;-4.60;48.60;;;;;;5126548;27;34423;-76
2021/12/21 07:21:40;;;;;;;1.73;1.13;;;-4.60;49.00;;;;;;5108336;27;34616;-76
2021/12/21 07:24:06;;;;;;;1.43;0.80;;;-4.60;48.80;;;;;;5106847;27;36915;-76
2021/12/21 07:26:32;;;;;;;4.63;1.50;;;-4.70;49.00;;;;;;5126130;27;34031;-76
2021/12/21 07:28:58;;;;;;;4.43;1.40;;;-4.60;49.30;;;;;;5089883;27;34237;-76
2021/12/21 07:31:25;;;;;;;1.40;1.17;;;-4.70;48.90;;;;;;5091587;27;34079;-76
2021/12/21 07:33:51;;;;;;;1.00;0.90;;;-4.70;49.30;;;;;;5090883;27;35879;-76
2021/12/21 07:36:17;;;;;;;2.50;0.90;;;-4.70;49.60;;;;;;5091239;27;34169;-76
2021/12/21 07:38:43;;;;;;;2.23;0.87;;;-4.70;49.50;;;;;;5126640;27;34328;-76
2021/12/21 07:41:09;;;;;;;1.87;1.03;;;-4.70;49.10;;;;;;5107806;27;34345;-76
2021/12/21 07:43:35;;;;;;;3.00;1.00;;;-4.70;49.00;;;;;;5107642;27;35837;-75
2021/12/21 07:46:01;;;;;;;3.83;0.97;;;-4.70;48.90;;;;;;5107774;27;34352;-75
2021/12/21 07:48:28;;;;;;;1.20;1.10;;;-4.70;48.70;;;;;;5108372;27;34151;-75
2021/12/21 07:50:55;;;;;;;1.83;1.30;;;-4.70;48.90;;;;;;5108126;27;34157;-76
2021/12/21 07:53:22;;;;;;;0.90;0.90;;;-4.70;49.10;;;;;;5090030;27;36767;-76
2021/12/21 07:55:48;;;;;;;4.47;1.13;;;-4.70;49.30;;;;;;5090606;27;34444;-75
2021/12/21 07:58:14;;;;;;;2.53;1.30;;;-4.60;49.40;;;;;;5107810;27;34184;-75
2021/12/21 08:00:41;;;;;;;1.67;1.13;;;-4.60;49.00;;;;;;5091604;27;34402;-75
2021/12/21 08:03:07;;;;;;;2.70;1.07;;;-4.60;49.20;;;;;;5107578;27;35515;-75
2021/12/21 08:05:34;;;;;;;1.23;0.90;;;-4.60;49.20;;;;;;5093097;27;34228;-76
2021/12/21 08:08:14;;;;;;;1.17;1.07;;;-4.60;49.30;;;;;;5093881;27;34319;-76
2021/12/21 08:10:44;;;;;;;1.67;1.30;;;-4.60;49.00;;;;;;5112408;27;34063;-76
2021/12/21 08:13:10;;;;;;;2.43;1.23;;;-4.50;49.20;;;;;;5104349;27;36569;-76
2021/12/21 08:15:36;;;;;;;1.20;1.10;;;-4.50;48.80;;;;;;5111753;27;34133;-76
2021/12/21 08:18:03;;;;;;;1.27;1.17;;;-4.50;48.70;;;;;;5112137;27;34306;-76
2021/12/21 08:20:29;;;;;;;1.47;1.17;;;-4.50;48.70;;;;;;5094332;27;34213;-76
2021/12/21 08:22:55;;;;;;;1.77;1.40;;;-4.50;48.50;;;;;;5076511;27;36771;-76
2021/12/21 08:25:24;;;;;;;3.67;1.20;;;-4.50;49.00;;;;;;5128406;27;34366;-76
2021/12/21 08:27:52;;;;;;;3.67;1.17;;;-4.50;49.20;;;;;;5110763;27;34300;-75
2021/12/21 08:30:19;;;;;;;2.40;1.33;;;-4.40;48.90;;;;;;5093722;27;34367;-76
2021/12/21 08:32:45;;;;;;;3.30;1.20;;;-4.40;49.10;;;;;;5111682;27;35821;-76
2021/12/21 08:35:12;;;;;;;3.90;1.20;;;-4.40;49.10;;;;;;5129025;27;34307;-76
2021/12/21 08:37:39;;;;;;;1.07;0.93;;;-4.30;49.60;;;;;;5129828;27;34226;-76
2021/12/21 08:40:07;;;;;;;1.47;1.20;;;-4.20;49.70;;;;;;5110582;27;34283;-76
2021/12/21 08:42:37;;;;;;;2.70;1.20;;;-4.10;49.50;;;;;;5111312;27;35904;-75
2021/12/21 08:45:06;;;;;;;2.13;1.33;;;-4.10;49.20;;;;;;5109223;27;34193;-76
2021/12/21 08:47:33;;;;;;;2.37;1.50;;;-3.90;49.40;;;;;;5110170;27;34463;-76
2021/12/21 08:49:59;;;;;;;1.37;1.27;;;-3.90;49.50;;;;;;5109430;27;34345;-76
2021/12/21 08:52:25;;;;;;;2.20;1.50;;;-3.80;49.30;;;;;;5109002;27;36022;-76
2021/12/21 08:54:51;;;;;;;1.47;1.37;;;-3.70;49.70;;;;;;5109891;27;34511;-76
2021/12/21 08:57:18;;;;;;;2.08;1.40;;;-3.50;49.90;;;;;;5093429;27;34209;-76
2021/12/21 08:59:44;;;;;;;3.47;1.50;;;-3.40;49.80;;;;;;5093543;27;34251;-76
2021/12/21 09:02:10;;;;;;;3.70;1.60;;;-3.30;49.80;;;;;;5109306;27;35828;-76
2021/12/21 09:04:37;;;;;;;2.28;1.95;;;-3.20;49.70;;;;;;5109400;27;34156;-76
2021/12/21 09:07:04;;;;;;;1.98;1.85;;;-3.00;49.80;;;;;;5109920;27;34350;-76
2021/12/21 09:09:31;;;;;;;3.83;2.20;;;-2.90;49.80;;;;;;5093467;27;34196;-76
2021/12/21 09:11:57;;;;;;;4.25;2.10;;;-2.80;49.60;;;;;;5128912;27;34310;-75
2021/12/21 09:14:23;;;;;;;5.68;2.63;;;-2.60;49.60;;;;;;5093266;27;34143;-76
2021/12/21 09:16:50;;;;;;;6.72;2.67;;;-2.50;49.70;;;;;;5109400;27;34235;-76
2021/12/21 09:19:17;;;;;;;2.33;1.98;;;-2.40;49.50;;;;;;5109106;27;34219;-76
2021/12/21 09:21:43;;;;;;;6.85;2.30;;;-2.30;49.70;;;;;;5092094;27;36099;-76
2021/12/21 09:24:09;;;;;;;3.45;1.98;;;-2.20;49.70;;;;;;5110583;27;34439;-76
2021/12/21 09:26:37;;;;;;;2.28;2.08;;;-2.10;50.50;;;;;;5110073;27;34213;-76
2021/12/21 09:29:03;;;;;;;6.25;1.98;;;-1.90;49.70;;;;;;5108720;27;34411;-76
2021/12/21 09:31:30;;;;;;;4.03;2.13;;;-1.80;49.70;;;;;;5108151;27;35899;-76
2021/12/21 09:33:56;;;;;;;4.97;2.20;;;-1.60;49.70;;;;;;5127320;27;33984;-76
2021/12/21 09:36:25;;;;;;;2.28;2.03;;;-1.50;49.70;;;;;;5109016;27;34293;-76
2021/12/21 09:38:51;;;;;;;2.85;2.13;;;-1.30;49.80;;;;;;5109572;27;34391;-76
2021/12/21 09:41:18;;;;;;;2.92;2.00;;;-1.10;49.70;;;;;;5126051;27;34428;-76
2021/12/21 09:43:44;;;;;;;2.00;1.77;;;-0.90;49.40;;;;;;5108609;27;34264;-76
2021/12/21 09:46:11;;;;;;;2.95;1.85;;;-0.60;49.20;;;;;;5107259;27;34344;-76
2021/12/21 09:48:38;;;;;;;6.30;2.47;;;-0.40;48.90;;;;;;5107649;27;34439;-76
2021/12/21 09:51:04;;;;;;;4.65;2.50;;;-0.20;48.90;;;;;;5089843;27;35651;-76
2021/12/21 09:53:33;;;;;;;4.80;2.00;;;0.10;48.80;;;;;;5125280;27;34302;-77
2021/12/21 09:56:00;;;;;;;2.20;1.70;;;0.30;48.40;;;;;;5125364;27;34276;-77
2021/12/21 09:58:27;;;;;;;3.15;1.90;;;0.50;48.30;;;;;;5107512;27;34238;-77
2021/12/21 10:00:53;;;;;;;5.80;2.03;;;0.70;48.00;;;;;;5106680;27;35643;-77
2021/12/21 10:03:19;;;;;;;2.30;1.50;;;0.90;48.10;;;;;;5106560;27;34339;-77
2021/12/21 10:05:46;;;;;;;4.55;2.17;;;1.00;47.90;;;;;;5124659;27;34114;-78
2021/12/21 10:08:16;;;;;;;2.03;1.30;;;1.20;47.80;;;;;;5107034;27;34516;-77
2021/12/21 10:10:46;;;;;;;2.65;1.90;;;1.40;48.00;;;;;;5108896;27;35487;-77
2021/12/21 10:13:18;;;;;;;3.30;1.92;;;1.60;48.00;;;;;;5107951;27;34152;-79
2021/12/21 10:15:53;;;;;;;4.60;2.00;;;1.80;48.10;;;;;;5108721;27;34245;-78
2021/12/21 10:18:25;;;;;;;2.40;2.20;;;2.00;47.80;;;;;;5091380;27;34523;-78
2021/12/21 10:20:55;;;;;;;3.83;2.38;;;2.20;47.80;;;;;;5092330;27;36602;-78
2021/12/21 10:23:33;;;;;;;4.00;2.00;;;2.40;47.90;;;;;;5096274;27;33776;-78
2021/12/21 10:26:05;;;;;;;3.95;2.08;;;2.60;47.70;;;;;;5075930;27;34159;-78
2021/12/21 10:28:38;;;;;;;3.25;2.33;;;2.80;47.40;;;;;;5124245;27;34188;-78
2021/12/21 10:31:07;;;;;;;4.47;2.33;;;2.90;47.40;;;;;;5089337;27;35592;-77
2021/12/21 10:33:34;;;;;;;4.95;2.13;;;3.10;47.40;;;;;;5106192;27;34160;-77
2021/12/21 10:36:03;;;;;;;2.47;1.95;;;3.20;48.10;;;;;;5123677;27;34213;-77
2021/12/21 10:38:33;;;;;;;4.05;2.15;;;3.40;47.30;;;;;;5089577;27;34250;-77
2021/12/21 10:41:07;;;;;;;4.28;1.85;;;3.60;47.50;;;;;;5105893;27;35529;-77
2021/12/21 10:43:34;;;;;;;4.03;1.77;;;3.70;47.50;;;;;;5125283;27;34311;-77
2021/12/21 10:46:00;;;;;;;2.28;1.60;;;3.90;47.10;;;;;;5125785;27;34066;-76
2021/12/21 10:48:29;;;;;;;2.45;1.38;;;4.10;46.80;;;;;;5107048;27;34465;-76
2021/12/21 10:50:55;;;;;;;5.82;1.30;;;4.30;46.70;;;;;;5123717;27;35695;-76
2021/12/21 10:53:24;;;;;;;3.03;2.00;;;4.40;46.60;;;;;;5122494;27;34183;-76
2021/12/21 10:56:07;;;;;;;2.08;1.30;;;4.50;46.30;;;;;;5122924;27;34298;-76
2021/12/21 10:58:38;;;;;;;1.92;1.30;;;4.60;45.00;;;;;;5123310;27;34418;-76
2021/12/21 11:01:10;;;;;;;2.25;1.33;;;4.80;46.10;;;;;;5089082;27;35630;-75
2021/12/21 11:03:50;;;;;;;2.65;1.55;;;4.80;45.70;;;;;;5105610;27;34238;-75
2021/12/21 11:06:25;;;;;;;2.47;1.40;;;4.90;45.70;;;;;;5107572;27;34538;-75
2021/12/21 11:08:54;;;;;;;2.30;1.40;;;5.00;45.40;;;;;;5122540;27;34463;-75
2021/12/21 11:11:33;;;;;;;2.35;1.40;;;5.10;45.50;;;;;;5104944;27;35821;-76
2021/12/21 11:14:03;;;;;;;2.63;1.45;;;5.20;44.70;;;;;;5122476;27;34270;-76
2021/12/21 11:16:48;;;;;;;3.80;1.65;;;5.30;45.40;;;;;;5122819;27;34097;-75
2021/12/21 11:19:17;;;;;;;4.32;1.45;;;5.40;44.50;;;;;;5137224;27;34277;-76
2021/12/21 11:21:45;;;;;;;1.60;1.40;;;5.50;45.70;;;;;;5109744;27;36322;-76
2021/12/21 11:24:14;;;;;;;4.07;1.35;;;5.60;46.30;;;;;;5143435;27;34182;-75
2021/12/21 11:29:29;;;;;;;3.88;1.40;;;5.70;45.50;;;;;;5144185;27;34286;-76
2021/12/21 11:31:57;;;;;;;2.80;1.25;;;5.80;45.30;;;;;;5126910;27;35781;-75
2021/12/21 11:34:31;;;;;;;1.40;1.15;;;5.90;45.40;;;;;;5144907;27;34102;-75
2021/12/21 11:39:40;;;;;;;1.27;1.10;;;5.90;44.90;;;;;;5146593;27;34274;-75
2021/12/21 11:42:08;;;;;;;1.92;1.33;;;5.90;44.90;;;;;;5146369;27;36135;-75
2021/12/21 11:44:51;;;;;;;1.38;1.15;;;5.90;44.50;;;;;;5129383;27;34200;-75
2021/12/21 11:47:25;;;;;;;1.30;1.20;;;5.80;43.70;;;;;;5114025;27;34283;-75
2021/12/21 11:49:58;;;;;;;4.40;1.77;;;5.80;44.90;;;;;;5147705;27;34344;-75
2021/12/21 11:52:25;;;;;;;3.05;1.40;;;5.80;44.30;;;;;;5130812;27;35864;-75
2021/12/21 11:54:55;;;;;;;3.78;1.70;;;5.70;44.30;;;;;;5130353;27;34408;-76
2021/12/21 11:57:46;;;;;;;2.08;1.23;;;5.60;44.70;;;;;;5130594;27;34248;-75
2021/12/21 12:00:23;;;;;;;3.05;1.58;;;5.50;40.80;;;;;;5147023;27;34067;-75
2021/12/21 12:02:52;;;;;;;1.73;1.20;;;5.40;43.50;;;;;;5147236;27;35843;-75
2021/12/21 12:05:25;;;;;;;3.08;1.35;;;5.30;44.60;;;;;;5148930;27;34198;-75
2021/12/21 12:08:02;;;;;;;1.45;1.20;;;5.30;44.20;;;;;;5148446;27;34322;-75
2021/12/21 12:10:47;;;;;;;3.85;1.80;;;5.30;43.30;;;;;;5114442;27;34545;-75
2021/12/21 12:13:25;;;;;;;1.92;1.20;;;5.30;44.70;;;;;;5148784;27;34571;-75
2021/12/21 12:15:56;;;;;;;2.40;1.33;;;5.40;44.40;;;;;;5131401;27;34493;-75
2021/12/21 12:18:27;;;;;;;1.88;1.02;;;5.40;44.40;;;;;;5131987;27;34315;-75
2021/12/21 12:20:55;;;;;;;4.00;1.50;;;5.40;44.40;;;;;;5131623;27;34418;-75
2021/12/21 12:23:22;;;;;;;2.72;1.25;;;5.50;44.70;;;;;;5148561;27;34354;-75
2021/12/21 12:25:57;;;;;;;1.67;1.08;;;5.50;44.70;;;;;;5148879;27;34194;-75
2021/12/21 12:28:26;;;;;;;0.90;0.90;;;5.50;44.20;;;;;;5131826;27;34242;-75
2021/12/21 12:30:55;;;;;;;1.75;1.20;;;5.50;44.40;;;;;;5114651;27;34466;-76
2021/12/21 12:33:23;;;;;;;1.50;1.13;;;5.60;44.00;;;;;;5131360;27;35760;-76
2021/12/21 12:35:49;;;;;;;1.40;1.30;;;5.60;44.30;;;;;;5114293;27;34270;-75
2021/12/21 12:38:19;;;;;;;1.52;1.08;;;5.60;44.20;;;;;;5149764;27;34046;-75
2021/12/21 12:40:50;;;;;;;4.72;1.85;;;5.60;44.10;;;;;;5149319;27;34080;-75
2021/12/21 12:43:21;;;;;;;1.25;1.15;;;5.60;44.30;;;;;;5129858;27;34169;-76
2021/12/21 12:45:54;;;;;;;5.60;1.10;;;5.70;44.20;;;;;;5112566;27;34256;-76
2021/12/21 12:48:29;;;;;;;1.80;1.30;;;5.70;43.90;;;;;;5148426;27;34189;-76
2021/12/21 12:50:57;;;;;;;4.18;1.20;;;5.80;43.80;;;;;;5147733;27;34096;-75
2021/12/21 12:53:43;;;;;;;3.42;1.50;;;5.70;44.00;;;;;;5113741;27;35973;-75
2021/12/21 12:56:12;;;;;;;0.93;0.88;;;5.80;43.00;;;;;;5113545;27;34240;-76
2021/12/21 12:58:56;;;;;;;1.50;1.10;;;5.80;43.80;;;;;;5149344;27;34209;-75
2021/12/21 13:01:25;;;;;;;2.88;1.48;;;5.80;41.80;;;;;;5130066;27;34660;-76
2021/12/21 13:03:54;;;;;;;1.75;1.10;;;5.80;43.70;;;;;;5129690;27;35919;-75
2021/12/21 13:06:23;;;;;;;2.38;1.17;;;5.80;43.70;;;;;;5112411;27;34235;-75
2021/12/21 13:08:49;;;;;;;5.00;1.30;;;5.80;43.60;;;;;;5130410;27;34114;-75
2021/12/21 13:11:22;;;;;;;2.53;1.00;;;5.70;43.30;;;;;;5129059;27;34123;-76
2021/12/21 13:13:49;;;;;;;2.55;1.10;;;5.70;42.30;;;;;;5130724;27;34175;-75
2021/12/21 13:16:18;;;;;;;3.97;1.10;;;5.60;43.40;;;;;;5128820;27;33969;-75
2021/12/21 13:18:51;;;;;;;3.83;1.10;;;5.60;42.60;;;;;;5119569;27;34130;-75
2021/12/21 13:21:23;;;;;;;5.20;1.15;;;5.60;43.20;;;;;;5108084;27;34281;-75
2021/12/21 13:23:58;;;;;;;1.67;1.08;;;5.60;43.10;;;;;;5107228;27;35570;-75
2021/12/21 13:26:32;;;;;;;3.60;1.10;;;5.50;42.50;;;;;;5107958;27;34103;-75
2021/12/21 13:28:59;;;;;;;1.45;0.98;;;5.50;42.60;;;;;;5125677;27;34236;-75
2021/12/21 13:31:26;;;;;;;2.20;1.40;;;5.40;43.00;;;;;;5128414;27;34281;-76
2021/12/21 13:33:55;;;;;;;2.47;1.30;;;5.40;43.50;;;;;;5127445;27;34325;-75
2021/12/21 13:36:41;;;;;;;2.28;0.93;;;5.30;43.50;;;;;;5109569;27;34242;-75
2021/12/21 13:39:19;;;;;;;2.08;1.20;;;5.30;41.60;;;;;;5110741;27;34221;-76
2021/12/21 13:41:48;;;;;;;3.75;1.30;;;5.20;42.50;;;;;;5109169;27;34419;-75
2021/12/21 13:44:21;;;;;;;1.85;0.90;;;5.10;43.40;;;;;;5107657;27;35640;-75
2021/12/21 13:46:47;;;;;;;1.95;1.10;;;5.00;42.50;;;;;;5127252;27;34141;-75
2021/12/21 13:49:13;;;;;;;1.52;1.20;;;4.90;43.50;;;;;;5108525;27;34493;-75
2021/12/21 13:51:50;;;;;;;1.23;1.13;;;4.90;43.30;;;;;;5126640;27;34188;-75
2021/12/21 13:54:18;;;;;;;2.75;1.10;;;4.90;42.90;;;;;;5125839;27;34226;-75